Time;durP1;ratioP1;P1;durP2;ratioP2;P2;SDS_P1;SDS_P2;PMS_P1;PMS_P2;Temp;Humidity;BMP_temperature;BMP_pressure;BME280_temperature;BME280_humidity;BME280_pressure;Samples;Min_cycle;Max_cycle;Signal;HPM_P1;HPM_P2
2022/03/19 00:02:02;;;;;;;15.40;4.38;;;;;;;10.08;51.43;102699.63;5110961;28;20075;-61
2022/03/19 00:04:28;;;;;;;16.50;4.50;;;;;;;10.05;51.33;102700.53;5110428;28;20496;-59
2022/03/19 00:06:55;;;;;;;18.25;4.28;;;;;;;10.03;51.67;102697.91;5111100;28;20055;-60
2022/03/19 00:09:22;;;;;;;11.25;3.60;;;;;;;10.01;51.38;102696.19;5111173;28;20500;-61
2022/03/19 00:11:48;;;;;;;14.15;4.50;;;;;;;9.98;51.52;102698.84;5110735;28;20060;-60
2022/03/19 00:14:15;;;;;;;14.20;4.47;;;;;;;9.96;51.64;102700.59;5109350;28;20071;-59
2022/03/19 00:16:42;;;;;;;20.83;4.78;;;;;;;9.93;51.74;102704.13;5110588;28;20105;-61
2022/03/19 00:19:09;;;;;;;11.23;3.85;;;;;;;9.89;51.74;102703.28;5110472;28;20408;-59
2022/03/19 00:21:37;;;;;;;12.95;4.82;;;;;;;9.86;52.20;102702.41;5110845;28;20407;-62
2022/03/19 00:24:05;;;;;;;13.63;4.43;;;;;;;9.83;52.02;102700.69;5109236;28;20055;-62
2022/03/19 00:26:33;;;;;;;16.95;4.40;;;;;;;9.81;52.26;102694.56;5109248;28;20055;-59
2022/03/19 00:29:00;;;;;;;13.82;4.28;;;;;;;9.80;52.12;102710.38;5110493;28;20044;-60
2022/03/19 00:31:27;;;;;;;12.57;4.50;;;;;;;9.77;52.26;102722.63;5110172;28;20044;-61
2022/03/19 00:33:54;;;;;;;16.98;4.32;;;;;;;9.75;52.28;102716.53;5112730;28;20062;-59
2022/03/19 00:36:20;;;;;;;15.20;3.97;;;;;;;9.73;52.21;102714.78;5114590;28;20055;-60
2022/03/19 00:38:48;;;;;;;14.45;4.65;;;;;;;9.71;52.54;102713.91;5114508;28;20043;-60
2022/03/19 00:41:14;;;;;;;17.98;4.63;;;;;;;9.69;52.40;102713.06;5114097;28;20051;-62
2022/03/19 00:43:41;;;;;;;14.27;4.40;;;;;;;9.67;52.43;102713.06;5114439;28;20048;-59
2022/03/19 00:46:08;;;;;;;11.40;4.40;;;;;;;9.65;52.59;102722.72;5114238;28;20051;-62
2022/03/19 00:48:35;;;;;;;14.27;4.80;;;;;;;9.62;52.40;102712.22;5113080;28;20074;-61
2022/03/19 00:51:01;;;;;;;11.88;4.18;;;;;;;9.58;52.38;102707.84;5114274;28;20055;-61
2022/03/19 00:53:28;;;;;;;18.92;5.25;;;;;;;9.53;52.58;102715.75;5114198;28;20043;-59
2022/03/19 00:55:55;;;;;;;16.60;4.60;;;;;;;9.47;52.54;102711.41;5114169;28;20089;-62
2022/03/19 00:58:21;;;;;;;14.82;4.55;;;;;;;9.41;52.69;102716.69;5114238;28;20104;-60
2022/03/19 01:00:48;;;;;;;17.90;4.72;;;;;;;9.35;52.58;102711.47;5113751;28;20047;-59
2022/03/19 01:03:15;;;;;;;12.50;4.05;;;;;;;9.29;53.07;102712.38;5113093;28;20056;-60
2022/03/19 01:05:43;;;;;;;12.90;4.70;;;;;;;9.25;53.12;102710.63;5114008;28;20050;-60
2022/03/19 01:08:11;;;;;;;17.52;5.00;;;;;;;9.20;53.35;102715.88;5114007;28;20101;-61
2022/03/19 01:10:39;;;;;;;13.23;5.05;;;;;;;9.17;53.47;102715.91;5113590;28;20855;-59
2022/03/19 01:13:07;;;;;;;12.32;4.90;;;;;;;9.12;53.46;102715.03;5113745;28;20052;-60
2022/03/19 01:15:33;;;;;;;13.07;4.95;;;;;;;9.08;53.48;102711.53;5112445;28;20097;-60
2022/03/19 01:18:01;;;;;;;14.48;5.47;;;;;;;9.05;53.55;102708.91;5113715;28;20547;-59
2022/03/19 01:20:30;;;;;;;13.98;5.28;;;;;;;9.00;54.34;102710.69;5113456;28;20051;-63
2022/03/19 01:22:57;;;;;;;12.75;4.88;;;;;;;8.96;53.45;102715.09;5112316;28;20052;-59
2022/03/19 01:25:23;;;;;;;14.05;4.97;;;;;;;8.93;53.44;102704.59;5113171;28;20051;-62
2022/03/19 01:27:50;;;;;;;14.23;4.68;;;;;;;8.90;53.52;102712.47;5113490;28;20051;-59
2022/03/19 01:30:21;;;;;;;16.45;4.60;;;;;;;8.86;54.15;102710.75;5112172;28;20055;-60
2022/03/19 01:32:49;;;;;;;17.23;4.95;;;;;;;8.85;53.98;102716.84;5113717;28;20117;-62
2022/03/19 01:35:18;;;;;;;13.48;4.38;;;;;;;8.82;54.02;102706.38;5113623;28;20043;-59
2022/03/19 01:37:46;;;;;;;21.63;5.10;;;;;;;8.81;53.90;102702.88;5112197;28;20426;-60
2022/03/19 01:40:14;;;;;;;11.48;5.13;;;;;;;8.79;54.02;102712.47;5111836;28;20058;-60
2022/03/19 01:42:45;;;;;;;14.27;5.07;;;;;;;8.78;54.50;102707.25;5112073;28;20048;-60
2022/03/19 01:45:22;;;;;;;12.73;4.72;;;;;;;8.76;54.38;102704.63;5111491;28;20043;-61
2022/03/19 01:47:50;;;;;;;12.80;5.03;;;;;;;8.75;53.86;102704.63;5113317;28;20048;-60
2022/03/19 01:50:18;;;;;;;11.95;4.65;;;;;;;8.73;54.29;102702.88;5111425;28;20039;-60
2022/03/19 01:52:45;;;;;;;12.35;5.13;;;;;;;8.72;54.19;102706.38;5111983;28;20050;-60
2022/03/19 01:55:14;;;;;;;11.07;4.72;;;;;;;8.71;54.12;102699.38;5113284;28;20079;-63
2022/03/19 01:57:43;;;;;;;13.68;4.80;;;;;;;8.70;54.24;102708.13;5111743;28;20052;-61
2022/03/19 02:00:16;;;;;;;15.15;4.80;;;;;;;8.66;54.81;102697.63;5113004;28;20043;-59
2022/03/19 02:02:44;;;;;;;11.73;4.57;;;;;;;8.63;54.01;102695.88;5112811;28;20048;-59
2022/03/19 02:05:14;;;;;;;12.52;4.68;;;;;;;8.60;54.18;102694.13;5111443;28;20403;-60
2022/03/19 02:07:42;;;;;;;11.10;4.47;;;;;;;8.57;54.04;102685.41;5112688;28;20097;-59
2022/03/19 02:10:10;;;;;;;10.98;4.35;;;;;;;8.54;54.25;102691.53;5112685;28;20131;-60
2022/03/19 02:12:37;;;;;;;18.48;4.68;;;;;;;8.52;54.10;102690.59;5112660;28;20052;-62
2022/03/19 02:15:05;;;;;;;14.38;5.22;;;;;;;8.50;54.41;102686.22;5112625;27;20048;-60
2022/03/19 02:17:33;;;;;;;12.55;5.03;;;;;;;8.48;54.05;102687.13;5112672;28;20054;-60
2022/03/19 02:20:02;;;;;;;14.95;5.20;;;;;;;8.47;54.22;102692.38;5112384;28;20136;-60
2022/03/19 02:22:29;;;;;;;11.88;4.95;;;;;;;8.45;54.19;102687.13;5112651;28;20050;-60
2022/03/19 02:27:43;;;;;;;12.35;4.68;;;;;;;8.40;54.14;102678.38;5112640;28;20141;-60
2022/03/19 02:30:13;;;;;;;13.43;4.80;;;;;;;8.36;54.05;102668.75;5111093;28;20044;-59
2022/03/19 02:32:42;;;;;;;12.55;4.32;;;;;;;8.33;54.08;102668.75;5112222;28;20675;-60
2022/03/19 02:35:09;;;;;;;16.10;4.57;;;;;;;8.31;53.90;102667.88;5111196;28;20156;-61
2022/03/19 02:37:41;;;;;;;12.20;4.50;;;;;;;8.26;55.18;102661.78;5112078;27;20048;-59
2022/03/19 02:40:10;;;;;;;8.68;4.70;;;;;;;8.25;54.54;102665.25;5112147;28;20051;-60
2022/03/19 02:42:42;;;;;;;10.73;4.47;;;;;;;8.22;54.43;102660.88;5112134;28;20055;-61
2022/03/19 02:45:09;;;;;;;13.65;4.47;;;;;;;8.21;54.50;102657.41;5111934;28;20062;-60
2022/03/19 02:47:57;;;;;;;10.95;4.57;;;;;;;8.20;54.25;102653.03;5112043;28;20060;-61
2022/03/19 02:50:27;;;;;;;16.20;4.72;;;;;;;8.19;54.56;102653.88;5112150;28;20523;-62
2022/03/19 02:52:55;;;;;;;15.07;4.55;;;;;;;8.18;54.46;102667.88;5112016;28;20162;-61
2022/03/19 02:55:22;;;;;;;10.43;4.93;;;;;;;8.17;54.58;102655.63;5110481;28;20055;-60
2022/03/19 02:57:48;;;;;;;11.07;4.63;;;;;;;8.17;54.70;102649.50;5110607;28;20051;-60
2022/03/19 03:00:15;;;;;;;10.73;4.47;;;;;;;8.17;54.46;102650.41;5111945;28;20051;-60
2022/03/19 03:02:42;;;;;;;14.02;4.93;;;;;;;8.17;54.54;102647.78;5111846;28;20113;-60
2022/03/19 03:05:12;;;;;;;12.27;4.82;;;;;;;8.16;55.18;102646.03;5111689;28;20488;-60
2022/03/19 03:07:40;;;;;;;10.90;5.28;;;;;;;8.17;54.67;102639.91;5111502;28;20040;-60
2022/03/19 03:10:08;;;;;;;13.43;4.75;;;;;;;8.18;54.40;102646.00;5111299;28;20043;-61
2022/03/19 03:12:35;;;;;;;12.07;4.82;;;;;;;8.17;54.58;102641.63;5110378;28;20058;-60
2022/03/19 03:18:49;;;;;;;10.30;4.03;;;;;;;8.15;54.08;102648.66;5110515;28;20050;-61
2022/03/19 03:21:15;;;;;;;11.40;5.43;;;;;;;8.13;54.24;102653.88;5111385;28;20816;-60
2022/03/19 03:23:42;;;;;;;11.30;4.10;;;;;;;8.12;54.05;102646.91;5111684;28;20063;-62
2022/03/19 03:26:08;;;;;;;13.38;4.75;;;;;;;8.10;54.17;102646.00;5111404;28;20051;-59
2022/03/19 03:28:35;;;;;;;13.80;4.80;;;;;;;8.07;54.24;102644.25;5111231;27;20043;-60
2022/03/19 03:31:02;;;;;;;11.63;4.10;;;;;;;8.05;54.33;102639.91;5111029;28;20048;-60
2022/03/19 03:33:29;;;;;;;11.43;4.50;;;;;;;8.03;54.63;102649.50;5110976;28;20127;-60
2022/03/19 03:35:55;;;;;;;12.73;5.15;;;;;;;8.02;54.39;102645.13;5110913;28;20052;-60
2022/03/19 03:38:22;;;;;;;12.88;4.72;;;;;;;8.01;54.30;102649.53;5111451;28;20485;-62
2022/03/19 03:40:49;;;;;;;15.43;4.28;;;;;;;7.98;54.69;102636.41;5110775;28;20077;-60
2022/03/19 03:43:15;;;;;;;13.15;4.63;;;;;;;7.95;54.14;102637.28;5111053;28;20047;-59
2022/03/19 03:45:42;;;;;;;10.88;4.90;;;;;;;7.93;54.56;102636.38;5110932;28;20044;-60
2022/03/19 03:48:09;;;;;;;11.13;4.57;;;;;;;7.90;54.43;102639.03;5110741;28;20051;-60
2022/03/19 03:50:36;;;;;;;12.55;4.90;;;;;;;7.87;54.45;102640.75;5110975;28;20063;-61
2022/03/19 03:53:07;;;;;;;9.35;4.53;;;;;;;7.82;55.16;102636.38;5109775;28;20389;-60
2022/03/19 03:55:34;;;;;;;9.15;4.50;;;;;;;7.79;54.29;102639.00;5109969;28;20060;-59
2022/03/19 03:58:03;;;;;;;12.30;4.75;;;;;;;7.76;54.73;102632.88;5111186;28;20055;-60
2022/03/19 04:00:34;;;;;;;12.60;4.68;;;;;;;7.71;55.13;102630.25;5109532;28;20047;-59
2022/03/19 04:03:01;;;;;;;10.80;4.75;;;;;;;7.68;54.45;102630.25;5111314;28;20082;-60
2022/03/19 04:05:28;;;;;;;9.38;4.75;;;;;;;7.63;54.07;102634.59;5110954;28;20048;-62
2022/03/19 04:07:54;;;;;;;11.82;4.60;;;;;;;7.58;54.40;102631.97;5110527;28;20496;-60
2022/03/19 04:10:21;;;;;;;12.27;4.30;;;;;;;7.53;54.42;102629.34;5110831;28;20096;-62
2022/03/19 04:12:48;;;;;;;9.32;4.35;;;;;;;7.49;54.48;102634.56;5111041;28;20066;-59
2022/03/19 04:15:14;;;;;;;8.38;3.65;;;;;;;7.46;54.20;102631.94;5110757;28;20104;-59
2022/03/19 04:17:41;;;;;;;9.45;4.43;;;;;;;7.41;54.25;102624.94;5111204;28;20044;-62
2022/03/19 04:20:08;;;;;;;10.07;3.80;;;;;;;7.39;54.62;102642.41;5110658;28;20054;-60
2022/03/19 04:22:40;;;;;;;12.10;3.72;;;;;;;7.35;55.21;102634.53;5109259;28;20458;-61
2022/03/19 04:25:12;;;;;;;9.73;4.25;;;;;;;7.33;55.13;102639.75;5110633;28;20067;-60
2022/03/19 04:27:40;;;;;;;10.07;4.20;;;;;;;7.33;54.28;102639.75;5110680;28;20051;-60
2022/03/19 04:30:07;;;;;;;12.80;3.65;;;;;;;7.32;54.37;102643.25;5110376;28;20039;-60
2022/03/19 04:32:41;;;;;;;10.88;4.47;;;;;;;7.28;55.25;102641.47;5143691;27;20066;-61
2022/03/19 04:37:56;;;;;;;7.28;3.90;;;;;;;7.27;54.36;102644.97;5110609;28;20058;-59
2022/03/19 04:40:22;;;;;;;11.65;4.15;;;;;;;7.24;54.33;102638.00;5110306;28;20052;-60
2022/03/19 04:42:49;;;;;;;14.45;4.00;;;;;;;7.22;54.28;102642.34;5110328;28;20100;-60
2022/03/19 04:45:16;;;;;;;9.88;3.83;;;;;;;7.21;54.57;102643.22;5110361;28;20079;-61
2022/03/19 04:47:42;;;;;;;14.18;4.22;;;;;;;7.20;54.70;102640.56;5110450;28;20643;-60
2022/03/19 04:50:09;;;;;;;11.60;3.95;;;;;;;7.19;54.70;102636.22;5110296;28;20096;-60
2022/03/19 04:52:36;;;;;;;18.13;4.60;;;;;;;7.15;54.30;102636.19;5110315;28;20047;-59
2022/03/19 04:55:04;;;;;;;12.13;4.15;;;;;;;7.14;54.53;102634.44;5109060;28;20047;-59
2022/03/19 04:57:30;;;;;;;15.45;4.43;;;;;;;7.12;54.76;102633.59;5108972;28;20073;-60
2022/03/19 04:59:58;;;;;;;12.65;3.97;;;;;;;7.10;54.64;102635.31;5110123;28;20120;-59
2022/03/19 05:02:25;;;;;;;13.10;4.03;;;;;;;7.09;54.63;102636.19;5108729;28;20495;-60
2022/03/19 05:04:52;;;;;;;11.57;4.30;;;;;;;7.08;54.74;102636.19;5109901;28;20048;-60
2022/03/19 05:07:19;;;;;;;10.98;4.07;;;;;;;7.07;54.76;102648.41;5110345;28;20491;-61
2022/03/19 05:12:33;;;;;;;16.73;4.00;;;;;;;7.03;55.14;102646.66;5110143;28;20085;-59
2022/03/19 05:15:00;;;;;;;13.77;4.28;;;;;;;7.02;54.92;102642.25;5108675;28;20044;-60
2022/03/19 05:17:27;;;;;;;11.18;4.03;;;;;;;7.00;55.07;102652.72;5109766;28;20093;-61
2022/03/19 05:19:53;;;;;;;14.20;4.13;;;;;;;6.98;54.87;102651.84;5110805;28;20459;-60
2022/03/19 05:22:20;;;;;;;11.90;4.18;;;;;;;6.97;55.09;102646.59;5114155;28;20055;-60
2022/03/19 05:24:47;;;;;;;10.82;3.92;;;;;;;6.96;55.02;102652.72;5113352;28;20048;-62
2022/03/19 05:27:13;;;;;;;12.90;3.67;;;;;;;6.95;54.85;102653.59;5113618;28;20055;-60
2022/03/19 05:29:40;;;;;;;9.85;4.13;;;;;;;6.93;54.74;102656.19;5113402;28;20050;-59
2022/03/19 05:32:07;;;;;;;14.13;3.85;;;;;;;6.91;55.15;102656.19;5113437;28;20047;-60
2022/03/19 05:34:34;;;;;;;12.32;4.07;;;;;;;6.90;55.06;102656.16;5112380;28;20051;-59
2022/03/19 05:37:03;;;;;;;14.13;4.32;;;;;;;6.87;55.25;102659.66;5113283;28;20051;-61
2022/03/19 05:39:33;;;;;;;11.48;4.00;;;;;;;6.86;55.71;102654.41;5113306;28;20631;-61
2022/03/19 05:42:00;;;;;;;13.20;4.20;;;;;;;6.86;55.21;102655.28;5112051;28;20488;-60
2022/03/19 05:44:27;;;;;;;10.02;4.68;;;;;;;6.85;55.05;102653.53;5113194;28;20052;-59
2022/03/19 05:46:53;;;;;;;13.88;4.70;;;;;;;6.83;55.33;102655.25;5113083;27;20055;-62
2022/03/19 05:49:20;;;;;;;13.68;4.63;;;;;;;6.83;55.25;102654.38;5113101;28;20560;-59
2022/03/19 05:51:46;;;;;;;8.50;3.65;;;;;;;6.82;55.27;102655.25;5112985;28;20051;-60
2022/03/19 05:54:13;;;;;;;17.20;4.68;;;;;;;6.80;55.18;102655.25;5111670;28;20100;-63
2022/03/19 05:56:40;;;;;;;15.32;4.25;;;;;;;6.78;55.48;102657.84;5113228;28;20063;-60
2022/03/19 05:59:06;;;;;;;11.98;3.88;;;;;;;6.76;55.36;102658.69;5112765;28;20093;-67
2022/03/19 06:01:35;;;;;;;16.33;4.82;;;;;;;6.73;55.49;102658.72;5112800;27;20048;-60
2022/03/19 06:04:01;;;;;;;12.35;3.80;;;;;;;6.71;55.28;102661.31;5112751;28;20097;-62
2022/03/19 06:06:28;;;;;;;15.45;4.80;;;;;;;6.70;55.30;102661.28;5112918;28;20473;-61
2022/03/19 06:08:56;;;;;;;11.77;4.35;;;;;;;6.69;55.44;102664.78;5112881;28;20063;-60
2022/03/19 06:11:22;;;;;;;18.80;4.55;;;;;;;6.68;55.68;102666.50;5111283;28;20043;-59
2022/03/19 06:13:49;;;;;;;8.63;4.03;;;;;;;6.68;55.82;102657.78;5112644;28;20056;-59
2022/03/19 06:16:16;;;;;;;16.40;4.18;;;;;;;6.68;55.64;102663.91;5112945;28;20051;-60
2022/03/19 06:18:46;;;;;;;13.70;4.28;;;;;;;6.70;55.91;102667.41;5112816;28;20047;-59
2022/03/19 06:21:13;;;;;;;14.07;4.15;;;;;;;6.70;55.70;102663.91;5110650;28;20488;-60
2022/03/19 06:23:39;;;;;;;12.45;3.67;;;;;;;6.71;55.91;102668.28;5111838;28;20077;-60
2022/03/19 06:26:06;;;;;;;9.65;3.75;;;;;;;6.72;55.76;102662.16;5111132;28;20129;-63
2022/03/19 06:28:32;;;;;;;11.30;4.60;;;;;;;6.72;55.66;102662.16;5112016;28;20549;-61
2022/03/19 06:30:59;;;;;;;15.07;4.80;;;;;;;6.73;55.71;102658.72;5111700;28;20491;-59
2022/03/19 06:33:25;;;;;;;12.70;4.13;;;;;;;6.74;55.87;102650.88;5112413;28;20059;-60
2022/03/19 06:38:38;;;;;;;18.60;4.40;;;;;;;6.81;55.89;102653.50;5112435;28;20051;-59
2022/03/19 06:41:05;;;;;;;11.55;4.47;;;;;;;6.83;55.68;102654.38;5111765;28;20055;-60
2022/03/19 06:43:32;;;;;;;11.82;4.53;;;;;;;6.84;55.67;102656.16;5111960;28;20090;-60
2022/03/19 06:45:59;;;;;;;14.32;4.20;;;;;;;6.86;56.01;102655.28;5112246;28;20051;-59
2022/03/19 06:48:26;;;;;;;10.57;4.07;;;;;;;6.88;55.75;102656.16;5111948;28;20713;-61
2022/03/19 06:50:54;;;;;;;20.27;5.03;;;;;;;6.91;56.03;102652.69;5093780;28;20051;-60
2022/03/19 06:53:24;;;;;;;11.35;3.83;;;;;;;6.93;56.13;102652.69;5110571;28;20048;-61
2022/03/19 06:55:51;;;;;;;15.43;4.45;;;;;;;6.95;55.67;102662.31;5110757;28;20561;-60
2022/03/19 06:58:21;;;;;;;12.82;4.05;;;;;;;6.99;55.80;102660.59;5110740;28;20052;-59
2022/03/19 07:00:49;;;;;;;9.93;3.67;;;;;;;7.00;55.89;102660.56;5111358;28;20047;-63
2022/03/19 07:03:15;;;;;;;14.73;4.32;;;;;;;7.04;55.60;102656.25;5111775;28;20050;-61
2022/03/19 07:05:42;;;;;;;15.18;4.20;;;;;;;7.08;55.65;102662.38;5111458;28;20047;-59
2022/03/19 07:08:09;;;;;;;10.38;4.20;;;;;;;7.10;55.66;102658.03;5111825;28;20055;-63
2022/03/19 07:10:35;;;;;;;12.95;4.13;;;;;;;7.14;55.39;102655.41;5111450;28;20055;-61
2022/03/19 07:13:03;;;;;;;10.70;3.75;;;;;;;7.17;55.68;102658.06;5111708;28;20104;-63
2022/03/19 07:15:30;;;;;;;10.75;3.40;;;;;;;7.21;55.50;102661.56;5111389;28;20055;-59
2022/03/19 07:18:00;;;;;;;16.27;3.97;;;;;;;7.26;55.39;102664.19;5110317;28;20051;-60
2022/03/19 07:20:27;;;;;;;14.18;3.78;;;;;;;7.29;55.37;102664.22;5111169;28;20039;-59
2022/03/19 07:22:55;;;;;;;11.32;3.88;;;;;;;7.34;55.29;102667.72;5110288;28;20066;-59
2022/03/19 07:25:24;;;;;;;12.10;3.90;;;;;;;7.38;55.41;102665.97;5111054;28;20480;-59
2022/03/19 07:27:53;;;;;;;10.73;3.55;;;;;;;7.43;55.62;102662.53;5111327;28;20066;-60
2022/03/19 07:30:20;;;;;;;11.25;4.20;;;;;;;7.50;55.12;102670.38;5109782;28;20055;-62
2022/03/19 07:32:47;;;;;;;11.95;3.45;;;;;;;7.56;55.37;102658.16;5109701;28;20047;-60
2022/03/19 07:35:14;;;;;;;11.05;3.30;;;;;;;7.61;55.01;102655.56;5111372;28;20063;-60
2022/03/19 07:37:42;;;;;;;9.98;3.13;;;;;;;7.66;55.19;102648.59;5111300;28;20047;-60
2022/03/19 07:41:45;;;;;;;13.25;3.03;;;;;;;7.71;54.90;102650.34;5109808;28;20052;-63
2022/03/19 07:43:08;;;;;;;13.20;3.65;;;;;;;7.77;55.10;102651.22;5110246;28;20048;-61
2022/03/19 07:45:36;;;;;;;15.02;4.10;;;;;;;7.81;54.67;102647.75;5109822;28;20047;-59
2022/03/19 07:48:03;;;;;;;6.82;2.92;;;;;;;7.85;54.95;102648.59;5109963;28;20571;-60
2022/03/19 07:50:50;;;;;;;6.90;3.28;;;;;;;7.90;54.57;102652.13;5110687;28;20048;-62
2022/03/19 07:53:17;;;;;;;10.10;3.45;;;;;;;7.94;54.57;102653.00;5110888;28;20055;-59
2022/03/19 07:55:43;;;;;;;16.23;4.18;;;;;;;7.98;54.70;102649.50;5110759;28;20055;-58
2022/03/19 07:58:15;;;;;;;14.02;3.72;;;;;;;8.04;54.82;102646.03;5111033;28;20055;-60
2022/03/19 08:00:42;;;;;;;12.13;3.53;;;;;;;8.08;54.87;102655.66;5110494;28;20445;-61
2022/03/19 08:03:09;;;;;;;10.65;3.63;;;;;;;8.14;54.89;102644.25;5110839;28;20083;-59
2022/03/19 08:05:35;;;;;;;11.43;3.78;;;;;;;8.19;54.95;102643.38;5109616;28;20059;-60
2022/03/19 08:08:05;;;;;;;14.00;3.40;;;;;;;8.26;54.69;102648.66;5110722;28;20039;-59
2022/03/19 08:10:32;;;;;;;9.90;3.13;;;;;;;8.32;54.57;102633.75;5110409;28;20043;-60
2022/03/19 08:13:06;;;;;;;10.45;3.30;;;;;;;8.37;54.70;102641.63;5110825;28;20407;-60
2022/03/19 08:15:34;;;;;;;11.48;3.22;;;;;;;8.43;54.48;102641.63;5109408;28;20051;-59
2022/03/19 08:18:01;;;;;;;12.20;3.10;;;;;;;8.51;54.73;102649.47;5110630;28;20059;-62
2022/03/19 08:20:28;;;;;;;12.88;3.70;;;;;;;8.56;54.71;102646.91;5110422;28;20051;-59
2022/03/19 08:22:55;;;;;;;12.20;3.35;;;;;;;8.62;54.26;102645.97;5109337;28;20048;-60
2022/03/19 08:25:22;;;;;;;15.68;3.40;;;;;;;8.66;54.46;102646.00;5109257;28;20051;-60
2022/03/19 08:27:50;;;;;;;10.13;3.17;;;;;;;8.72;54.14;102637.22;5110764;28;20047;-60
2022/03/19 08:30:19;;;;;;;12.07;3.35;;;;;;;8.77;53.94;102647.69;5108838;28;20055;-60
2022/03/19 08:32:45;;;;;;;10.82;3.35;;;;;;;8.84;53.84;102633.69;5110219;28;20048;-59
2022/03/19 08:35:12;;;;;;;12.02;3.85;;;;;;;8.89;54.12;102637.16;5110187;28;20055;-59
2022/03/19 08:37:44;;;;;;;10.98;3.28;;;;;;;8.94;53.53;102635.38;5110813;28;20044;-60
2022/03/19 08:40:17;;;;;;;15.38;3.60;;;;;;;8.99;53.59;102630.13;5110427;28;20059;-59
2022/03/19 08:42:52;;;;;;;15.63;3.70;;;;;;;9.04;53.70;102633.59;5109224;28;20481;-59
2022/03/19 08:45:20;;;;;;;9.68;3.13;;;;;;;9.09;53.30;102637.09;5108889;28;20058;-60
2022/03/19 08:47:47;;;;;;;13.70;3.13;;;;;;;9.15;53.18;102630.09;5109269;28;20068;-64
2022/03/19 08:50:14;;;;;;;18.77;3.97;;;;;;;9.19;53.41;102631.81;5110200;28;20047;-59
2022/03/19 08:52:41;;;;;;;14.23;3.60;;;;;;;9.23;53.08;102623.88;5110580;28;20523;-60
2022/03/19 08:55:09;;;;;;;10.35;3.03;;;;;;;9.28;53.25;102621.25;5112211;28;20047;-60
2022/03/19 08:57:36;;;;;;;13.73;3.42;;;;;;;9.33;53.08;102618.56;5112815;28;20055;-60
2022/03/19 09:00:04;;;;;;;7.45;3.03;;;;;;;9.38;53.19;102614.16;5113669;28;20054;-59
2022/03/19 09:02:40;;;;;;;9.35;2.80;;;;;;;9.47;52.88;102611.50;5111868;28;20047;-60
2022/03/19 09:05:08;;;;;;;11.65;3.05;;;;;;;9.53;52.53;102610.56;5113991;28;20056;-59
2022/03/19 09:07:35;;;;;;;12.55;3.40;;;;;;;9.60;52.89;102614.91;5113143;28;20400;-59
2022/03/19 09:10:02;;;;;;;11.60;3.03;;;;;;;9.66;52.36;102606.13;5114029;28;20060;-60
2022/03/19 09:12:36;;;;;;;13.40;3.33;;;;;;;9.73;52.33;102605.19;5113792;28;20056;-59
2022/03/19 09:15:04;;;;;;;12.43;2.50;;;;;;;9.78;52.14;102611.28;5112867;28;20047;-59
2022/03/19 09:17:31;;;;;;;8.93;2.58;;;;;;;9.84;52.36;102609.50;5112723;28;20047;-59
2022/03/19 09:19:57;;;;;;;8.98;3.05;;;;;;;9.89;52.44;102597.16;5114030;28;20453;-59
2022/03/19 09:22:24;;;;;;;9.35;3.03;;;;;;;9.96;52.16;102598.88;5112555;28;20048;-60
2022/03/19 09:24:50;;;;;;;7.72;2.47;;;;;;;10.03;52.06;102600.53;5113552;28;20055;-59
2022/03/19 09:27:17;;;;;;;6.95;2.50;;;;;;;10.13;51.64;102600.47;5112369;28;20048;-59
2022/03/19 09:29:44;;;;;;;9.82;2.90;;;;;;;10.20;51.80;102599.53;5113806;28;20218;-61
2022/03/19 09:32:11;;;;;;;11.07;2.80;;;;;;;10.26;51.50;102594.22;5113775;28;20044;-59
2022/03/19 09:34:39;;;;;;;11.13;2.55;;;;;;;10.34;51.13;102593.25;5113730;28;20449;-60
2022/03/19 09:37:06;;;;;;;9.05;2.60;;;;;;;10.40;50.82;102596.69;5111505;28;20044;-59
2022/03/19 09:39:34;;;;;;;7.40;2.58;;;;;;;10.47;50.72;102591.41;5113119;28;20446;-60
2022/03/19 09:42:01;;;;;;;7.43;2.30;;;;;;;10.53;50.27;102588.69;5113049;28;20107;-61
2022/03/19 09:44:28;;;;;;;5.15;1.80;;;;;;;10.61;50.18;102593.91;5113507;28;20666;-59
2022/03/19 09:46:55;;;;;;;7.22;1.95;;;;;;;10.66;49.80;102585.03;5113259;28;20063;-60
2022/03/19 09:49:21;;;;;;;8.65;1.98;;;;;;;10.72;49.40;102576.19;5112805;28;20043;-60
2022/03/19 09:51:54;;;;;;;6.47;2.03;;;;;;;10.78;48.65;102584.03;5111896;28;20056;-60
2022/03/19 09:54:24;;;;;;;4.50;1.58;;;;;;;10.87;48.29;102585.66;5113161;27;20764;-60
2022/03/19 09:56:51;;;;;;;5.35;1.55;;;;;;;10.94;48.55;102570.63;5113076;28;20545;-61
2022/03/19 09:59:20;;;;;;;7.10;1.73;;;;;;;11.01;48.31;102561.75;5111568;28;20070;-59
2022/03/19 10:01:47;;;;;;;4.15;1.48;;;;;;;11.09;48.16;102564.28;5112875;27;20487;-59
2022/03/19 10:04:17;;;;;;;6.85;1.83;;;;;;;11.16;48.38;102562.44;5112824;28;20040;-59
2022/03/19 10:09:41;;;;;;;9.88;2.00;;;;;;;11.32;48.08;102550.78;5112640;28;20058;-62
2022/03/19 10:12:18;;;;;;;8.93;2.10;;;;;;;11.41;48.03;102559.44;5111877;28;20389;-60
2022/03/19 10:14:53;;;;;;;4.97;2.25;;;;;;;11.51;48.28;102542.56;5111539;28;20055;-59
2022/03/19 10:17:34;;;;;;;8.88;2.63;;;;;;;11.61;48.56;102543.31;5111322;28;20066;-60
2022/03/19 10:20:13;;;;;;;14.07;2.70;;;;;;;11.73;48.54;102544.84;5111334;28;20052;-60
2022/03/19 10:22:44;;;;;;;10.55;2.55;;;;;;;11.88;48.86;102537.59;5112955;28;20048;-62
2022/03/19 10:25:17;;;;;;;8.23;2.30;;;;;;;12.01;49.19;102536.47;5111380;28;20055;-61
2022/03/19 10:27:45;;;;;;;8.25;2.30;;;;;;;12.16;48.50;102542.38;5111515;28;20081;-59
2022/03/19 10:30:19;;;;;;;7.32;2.35;;;;;;;12.28;47.85;102536.88;5111284;28;20066;-60
2022/03/19 10:32:51;;;;;;;8.52;2.25;;;;;;;12.43;47.73;102537.47;5112545;28;20504;-60
2022/03/19 10:35:35;;;;;;;9.18;2.33;;;;;;;12.51;47.05;102536.44;5112678;27;20063;-60
2022/03/19 10:38:16;;;;;;;5.75;1.77;;;;;;;12.66;47.58;102522.91;5111057;28;20131;-59
2022/03/19 10:40:45;;;;;;;5.70;1.95;;;;;;;12.78;47.04;102522.66;5112295;28;20097;-60
2022/03/19 10:43:12;;;;;;;6.55;2.17;;;;;;;12.89;47.14;102522.41;5110964;28;20627;-62
2022/03/19 10:45:44;;;;;;;11.98;2.30;;;;;;;12.97;45.59;102506.41;5112155;28;20170;-61
2022/03/19 10:48:12;;;;;;;5.38;1.92;;;;;;;13.08;46.42;102509.66;5112002;28;20051;-60
2022/03/19 10:50:41;;;;;;;6.97;2.05;;;;;;;13.15;45.37;102505.97;5111739;28;20061;-61
2022/03/19 10:53:08;;;;;;;5.20;1.95;;;;;;;13.24;46.17;102504.84;5110561;28;20502;-61
2022/03/19 10:55:35;;;;;;;6.68;1.90;;;;;;;13.33;46.01;102498.47;5111961;28;20052;-60
2022/03/19 10:58:02;;;;;;;7.20;1.85;;;;;;;13.41;45.21;102487.72;5111918;28;20134;-62
2022/03/19 11:00:29;;;;;;;8.30;2.50;;;;;;;13.51;45.03;102489.25;5110401;28;20052;-60
2022/03/19 11:03:00;;;;;;;4.90;1.90;;;;;;;13.58;45.07;102489.97;5111578;28;20052;-60
2022/03/19 11:05:28;;;;;;;4.22;1.90;;;;;;;13.67;44.60;102495.03;5110341;28;20055;-60
2022/03/19 11:07:56;;;;;;;4.47;2.00;;;;;;;13.76;44.42;102495.69;5110783;28;20047;-60
2022/03/19 11:10:24;;;;;;;6.45;1.95;;;;;;;13.85;44.24;102481.31;5111385;28;20104;-60
2022/03/19 11:12:54;;;;;;;4.50;1.80;;;;;;;13.92;44.02;102485.56;5111393;28;20055;-62
2022/03/19 11:15:21;;;;;;;4.63;1.67;;;;;;;14.03;43.90;102472.03;5109797;28;20056;-61
2022/03/19 11:17:50;;;;;;;4.45;1.50;;;;;;;14.15;43.92;102482.28;5110348;28;20043;-60
2022/03/19 11:20:17;;;;;;;6.72;1.75;;;;;;;14.33;44.98;102472.06;5109274;28;20500;-60
2022/03/19 11:22:49;;;;;;;5.70;1.67;;;;;;;14.58;44.79;102458.09;5111561;28;20047;-60
2022/03/19 11:25:42;;;;;;;5.27;1.80;;;;;;;14.97;44.23;102463.09;5111417;27;20104;-60
2022/03/19 11:28:10;;;;;;;4.95;1.65;;;;;;;15.55;45.70;102452.34;5109876;28;20059;-62
2022/03/19 11:30:40;;;;;;;3.67;1.40;;;;;;;16.12;45.05;102452.13;5109576;28;20059;-61
2022/03/19 11:33:19;;;;;;;3.70;1.10;;;;;;;16.75;43.44;102427.53;5111179;28;20062;-61
2022/03/19 11:35:47;;;;;;;3.70;1.35;;;;;;;17.41;42.34;102441.72;5111377;28;20047;-60
2022/03/19 11:38:16;;;;;;;3.25;1.40;;;;;;;18.00;40.78;102435.63;5109406;28;20067;-60
2022/03/19 11:40:47;;;;;;;3.80;1.10;;;;;;;18.48;39.42;102438.78;5109627;28;20101;-62
2022/03/19 11:43:31;;;;;;;3.17;1.38;;;;;;;18.85;37.37;102430.78;5110138;28;20079;-60
2022/03/19 11:46:07;;;;;;;3.15;1.15;;;;;;;19.26;37.00;102428.81;5111209;28;20058;-60
2022/03/19 11:48:46;;;;;;;3.30;1.25;;;;;;;19.57;36.05;102424.53;5109880;28;20081;-60
2022/03/19 11:51:25;;;;;;;4.25;1.25;;;;;;;19.88;35.34;102428.25;5110684;28;20055;-63